sensor_id;sensor_type;location;lat;lon;timestamp;P1;durP1;ratioP1;P2;durP2;ratioP2
20894;SDS011;10607;42.066;24.742;2024-01-27T00:01:59;4.47;;;2.00;;
20894;SDS011;10607;42.066;24.742;2024-01-27T00:04:24;3.17;;;1.93;;
20894;SDS011;10607;42.066;24.742;2024-01-27T00:06:50;5.93;;;2.17;;
20894;SDS011;10607;42.066;24.742;2024-01-27T00:09:15;5.13;;;1.87;;
20894;SDS011;10607;42.066;24.742;2024-01-27T00:11:40;3.77;;;1.80;;
20894;SDS011;10607;42.066;24.742;2024-01-27T00:14:05;3.97;;;1.90;;
20894;SDS011;10607;42.066;24.742;2024-01-27T00:16:31;4.87;;;2.37;;
20894;SDS011;10607;42.066;24.742;2024-01-27T00:18:56;3.03;;;1.90;;
20894;SDS011;10607;42.066;24.742;2024-01-27T00:21:21;7.43;;;2.10;;
20894;SDS011;10607;42.066;24.742;2024-01-27T00:23:46;4.00;;;1.73;;
20894;SDS011;10607;42.066;24.742;2024-01-27T00:26:12;3.07;;;1.80;;
20894;SDS011;10607;42.066;24.742;2024-01-27T00:28:37;3.63;;;1.73;;
20894;SDS011;10607;42.066;24.742;2024-01-27T00:31:02;4.90;;;1.83;;
20894;SDS011;10607;42.066;24.742;2024-01-27T00:33:27;6.17;;;1.90;;
20894;SDS011;10607;42.066;24.742;2024-01-27T00:35:52;2.93;;;1.77;;
20894;SDS011;10607;42.066;24.742;2024-01-27T00:38:18;5.87;;;1.77;;
20894;SDS011;10607;42.066;24.742;2024-01-27T00:40:43;5.27;;;1.77;;
20894;SDS011;10607;42.066;24.742;2024-01-27T00:43:08;5.37;;;1.90;;
20894;SDS011;10607;42.066;24.742;2024-01-27T00:45:33;3.00;;;1.50;;
20894;SDS011;10607;42.066;24.742;2024-01-27T00:47:59;5.77;;;1.50;;
20894;SDS011;10607;42.066;24.742;2024-01-27T00:50:24;4.70;;;2.03;;
20894;SDS011;10607;42.066;24.742;2024-01-27T00:52:49;4.20;;;1.83;;
20894;SDS011;10607;42.066;24.742;2024-01-27T00:55:15;4.80;;;1.60;;
20894;SDS011;10607;42.066;24.742;2024-01-27T00:57:40;5.13;;;1.90;;
20894;SDS011;10607;42.066;24.742;2024-01-27T01:00:06;3.67;;;1.70;;
20894;SDS011;10607;42.066;24.742;2024-01-27T01:02:31;2.93;;;1.77;;
20894;SDS011;10607;42.066;24.742;2024-01-27T01:04:56;4.43;;;1.90;;
20894;SDS011;10607;42.066;24.742;2024-01-27T01:07:22;4.20;;;1.97;;
20894;SDS011;10607;42.066;24.742;2024-01-27T01:09:47;2.83;;;1.80;;
20894;SDS011;10607;42.066;24.742;2024-01-27T01:12:12;3.60;;;1.73;;
20894;SDS011;10607;42.066;24.742;2024-01-27T01:14:39;4.00;;;1.80;;
20894;SDS011;10607;42.066;24.742;2024-01-27T01:17:05;2.80;;;1.70;;
20894;SDS011;10607;42.066;24.742;2024-01-27T01:19:30;3.60;;;1.73;;
20894;SDS011;10607;42.066;24.742;2024-01-27T01:21:55;4.27;;;2.10;;
20894;SDS011;10607;42.066;24.742;2024-01-27T01:24:20;3.40;;;1.70;;
20894;SDS011;10607;42.066;24.742;2024-01-27T01:26:46;8.07;;;3.60;;
20894;SDS011;10607;42.066;24.742;2024-01-27T01:29:11;7.57;;;2.57;;
20894;SDS011;10607;42.066;24.742;2024-01-27T01:31:36;6.07;;;1.47;;
20894;SDS011;10607;42.066;24.742;2024-01-27T01:34:02;4.13;;;1.80;;
20894;SDS011;10607;42.066;24.742;2024-01-27T01:36:27;4.40;;;1.40;;
20894;SDS011;10607;42.066;24.742;2024-01-27T01:38:53;2.87;;;1.70;;
20894;SDS011;10607;42.066;24.742;2024-01-27T01:41:18;3.93;;;2.00;;
20894;SDS011;10607;42.066;24.742;2024-01-27T01:43:43;6.80;;;1.80;;
20894;SDS011;10607;42.066;24.742;2024-01-27T01:46:08;3.83;;;1.73;;
20894;SDS011;10607;42.066;24.742;2024-01-27T01:48:34;4.57;;;2.00;;
20894;SDS011;10607;42.066;24.742;2024-01-27T01:50:59;5.20;;;1.90;;
20894;SDS011;10607;42.066;24.742;2024-01-27T01:53:25;3.60;;;1.57;;
20894;SDS011;10607;42.066;24.742;2024-01-27T01:55:51;3.50;;;1.57;;
20894;SDS011;10607;42.066;24.742;2024-01-27T01:58:17;2.37;;;1.80;;
20894;SDS011;10607;42.066;24.742;2024-01-27T02:00:43;2.70;;;1.47;;
20894;SDS011;10607;42.066;24.742;2024-01-27T02:03:12;12.93;;;5.27;;
20894;SDS011;10607;42.066;24.742;2024-01-27T02:05:38;24.00;;;8.93;;
20894;SDS011;10607;42.066;24.742;2024-01-27T02:08:03;12.00;;;4.93;;
20894;SDS011;10607;42.066;24.742;2024-01-27T02:10:29;5.33;;;2.23;;
20894;SDS011;10607;42.066;24.742;2024-01-27T02:13:01;2.10;;;1.77;;
20894;SDS011;10607;42.066;24.742;2024-01-27T02:15:26;2.83;;;1.50;;
20894;SDS011;10607;42.066;24.742;2024-01-27T02:17:51;3.20;;;1.53;;
20894;SDS011;10607;42.066;24.742;2024-01-27T02:20:16;3.57;;;1.47;;
20894;SDS011;10607;42.066;24.742;2024-01-27T02:22:41;4.37;;;1.53;;
20894;SDS011;10607;42.066;24.742;2024-01-27T02:25:07;3.03;;;1.60;;
20894;SDS011;10607;42.066;24.742;2024-01-27T02:27:32;1.97;;;1.67;;
20894;SDS011;10607;42.066;24.742;2024-01-27T02:29:57;2.90;;;1.50;;
20894;SDS011;10607;42.066;24.742;2024-01-27T02:32:23;4.33;;;1.40;;
20894;SDS011;10607;42.066;24.742;2024-01-27T02:34:48;4.17;;;1.70;;
20894;SDS011;10607;42.066;24.742;2024-01-27T02:37:14;5.23;;;1.63;;
20894;SDS011;10607;42.066;24.742;2024-01-27T02:39:39;1.90;;;1.50;;
20894;SDS011;10607;42.066;24.742;2024-01-27T02:42:05;2.40;;;1.17;;
20894;SDS011;10607;42.066;24.742;2024-01-27T02:44:30;8.10;;;4.30;;
20894;SDS011;10607;42.066;24.742;2024-01-27T02:46:55;7.30;;;3.07;;
20894;SDS011;10607;42.066;24.742;2024-01-27T02:49:21;4.33;;;2.23;;
20894;SDS011;10607;42.066;24.742;2024-01-27T02:51:46;6.13;;;2.00;;
20894;SDS011;10607;42.066;24.742;2024-01-27T02:54:12;2.77;;;2.30;;
20894;SDS011;10607;42.066;24.742;2024-01-27T02:56:38;4.10;;;2.17;;
20894;SDS011;10607;42.066;24.742;2024-01-27T02:59:03;32.70;;;10.83;;
20894;SDS011;10607;42.066;24.742;2024-01-27T03:01:28;48.83;;;17.03;;
20894;SDS011;10607;42.066;24.742;2024-01-27T03:03:53;23.50;;;9.07;;
20894;SDS011;10607;42.066;24.742;2024-01-27T03:06:19;14.40;;;5.87;;
20894;SDS011;10607;42.066;24.742;2024-01-27T03:08:44;6.03;;;2.80;;
20894;SDS011;10607;42.066;24.742;2024-01-27T03:11:09;3.67;;;1.50;;
20894;SDS011;10607;42.066;24.742;2024-01-27T03:13:34;2.70;;;1.70;;
20894;SDS011;10607;42.066;24.742;2024-01-27T03:16:00;1.47;;;1.17;;
20894;SDS011;10607;42.066;24.742;2024-01-27T03:18:25;4.50;;;1.53;;
20894;SDS011;10607;42.066;24.742;2024-01-27T03:20:50;2.47;;;1.20;;
20894;SDS011;10607;42.066;24.742;2024-01-27T03:23:15;2.83;;;1.57;;
20894;SDS011;10607;42.066;24.742;2024-01-27T03:25:41;3.23;;;1.67;;
20894;SDS011;10607;42.066;24.742;2024-01-27T03:28:06;3.93;;;1.30;;
20894;SDS011;10607;42.066;24.742;2024-01-27T03:30:31;1.97;;;1.27;;
20894;SDS011;10607;42.066;24.742;2024-01-27T03:32:56;2.20;;;1.50;;
20894;SDS011;10607;42.066;24.742;2024-01-27T03:35:21;2.53;;;1.43;;
20894;SDS011;10607;42.066;24.742;2024-01-27T03:37:47;2.97;;;1.50;;
20894;SDS011;10607;42.066;24.742;2024-01-27T03:40:12;2.80;;;1.67;;
20894;SDS011;10607;42.066;24.742;2024-01-27T03:42:38;7.03;;;2.60;;
20894;SDS011;10607;42.066;24.742;2024-01-27T03:45:03;4.47;;;2.73;;
20894;SDS011;10607;42.066;24.742;2024-01-27T03:47:28;3.03;;;2.20;;
20894;SDS011;10607;42.066;24.742;2024-01-27T03:49:53;1.90;;;1.30;;
20894;SDS011;10607;42.066;24.742;2024-01-27T03:52:19;14.50;;;4.40;;
20894;SDS011;10607;42.066;24.742;2024-01-27T03:54:45;22.90;;;7.30;;
20894;SDS011;10607;42.066;24.742;2024-01-27T03:57:10;16.80;;;6.33;;
20894;SDS011;10607;42.066;24.742;2024-01-27T03:59:35;3.10;;;2.30;;
20894;SDS011;10607;42.066;24.742;2024-01-27T04:02:00;12.33;;;4.63;;
20894;SDS011;10607;42.066;24.742;2024-01-27T04:04:26;10.60;;;4.10;;
20894;SDS011;10607;42.066;24.742;2024-01-27T04:06:51;5.97;;;2.30;;
20894;SDS011;10607;42.066;24.742;2024-01-27T04:09:16;4.87;;;2.40;;
20894;SDS011;10607;42.066;24.742;2024-01-27T04:11:41;5.33;;;2.77;;
20894;SDS011;10607;42.066;24.742;2024-01-27T04:14:07;6.10;;;2.23;;
20894;SDS011;10607;42.066;24.742;2024-01-27T04:16:33;3.83;;;2.00;;
20894;SDS011;10607;42.066;24.742;2024-01-27T04:18:58;4.97;;;2.60;;
20894;SDS011;10607;42.066;24.742;2024-01-27T04:21:23;5.77;;;3.00;;
20894;SDS011;10607;42.066;24.742;2024-01-27T04:23:48;3.33;;;2.17;;
20894;SDS011;10607;42.066;24.742;2024-01-27T04:26:13;4.60;;;2.27;;
20894;SDS011;10607;42.066;24.742;2024-01-27T04:28:39;4.03;;;2.10;;
20894;SDS011;10607;42.066;24.742;2024-01-27T04:31:04;5.97;;;2.33;;
20894;SDS011;10607;42.066;24.742;2024-01-27T04:33:29;4.17;;;2.00;;
20894;SDS011;10607;42.066;24.742;2024-01-27T04:35:55;5.30;;;2.50;;
20894;SDS011;10607;42.066;24.742;2024-01-27T04:38:20;2.93;;;2.63;;
20894;SDS011;10607;42.066;24.742;2024-01-27T04:40:45;5.73;;;2.53;;
20894;SDS011;10607;42.066;24.742;2024-01-27T04:43:14;4.13;;;2.03;;
20894;SDS011;10607;42.066;24.742;2024-01-27T04:45:39;5.03;;;2.03;;
20894;SDS011;10607;42.066;24.742;2024-01-27T04:48:04;4.23;;;2.20;;
20894;SDS011;10607;42.066;24.742;2024-01-27T04:50:30;3.13;;;2.10;;
20894;SDS011;10607;42.066;24.742;2024-01-27T04:52:55;5.83;;;2.40;;
20894;SDS011;10607;42.066;24.742;2024-01-27T04:55:20;3.77;;;2.30;;
20894;SDS011;10607;42.066;24.742;2024-01-27T04:57:45;3.40;;;2.40;;
20894;SDS011;10607;42.066;24.742;2024-01-27T05:00:11;4.77;;;1.83;;
20894;SDS011;10607;42.066;24.742;2024-01-27T05:02:40;6.97;;;2.23;;
20894;SDS011;10607;42.066;24.742;2024-01-27T05:05:06;4.47;;;2.30;;
20894;SDS011;10607;42.066;24.742;2024-01-27T05:07:32;3.53;;;2.23;;
20894;SDS011;10607;42.066;24.742;2024-01-27T05:09:57;6.20;;;2.87;;
20894;SDS011;10607;42.066;24.742;2024-01-27T05:12:22;2.33;;;2.13;;
20894;SDS011;10607;42.066;24.742;2024-01-27T05:14:47;4.50;;;2.20;;
20894;SDS011;10607;42.066;24.742;2024-01-27T05:17:13;3.57;;;2.20;;
20894;SDS011;10607;42.066;24.742;2024-01-27T05:19:38;3.50;;;2.23;;
20894;SDS011;10607;42.066;24.742;2024-01-27T05:22:03;2.93;;;2.20;;
20894;SDS011;10607;42.066;24.742;2024-01-27T05:24:28;3.60;;;1.80;;
20894;SDS011;10607;42.066;24.742;2024-01-27T05:26:53;2.40;;;1.60;;
20894;SDS011;10607;42.066;24.742;2024-01-27T05:29:19;5.67;;;2.17;;
20894;SDS011;10607;42.066;24.742;2024-01-27T05:31:44;3.63;;;2.30;;
20894;SDS011;10607;42.066;24.742;2024-01-27T05:34:12;2.13;;;1.80;;
20894;SDS011;10607;42.066;24.742;2024-01-27T05:36:37;4.73;;;2.17;;
20894;SDS011;10607;42.066;24.742;2024-01-27T05:39:03;3.43;;;2.10;;
20894;SDS011;10607;42.066;24.742;2024-01-27T05:41:29;4.90;;;2.27;;
20894;SDS011;10607;42.066;24.742;2024-01-27T05:43:55;5.40;;;2.60;;
20894;SDS011;10607;42.066;24.742;2024-01-27T05:46:22;5.57;;;2.60;;
20894;SDS011;10607;42.066;24.742;2024-01-27T05:48:47;3.17;;;2.20;;
20894;SDS011;10607;42.066;24.742;2024-01-27T05:51:12;3.23;;;2.50;;
20894;SDS011;10607;42.066;24.742;2024-01-27T05:53:37;8.30;;;2.23;;
20894;SDS011;10607;42.066;24.742;2024-01-27T05:56:02;4.80;;;2.20;;
20894;SDS011;10607;42.066;24.742;2024-01-27T05:58:28;3.37;;;2.17;;
20894;SDS011;10607;42.066;24.742;2024-01-27T06:00:53;4.93;;;2.93;;
20894;SDS011;10607;42.066;24.742;2024-01-27T06:03:19;4.60;;;2.80;;
20894;SDS011;10607;42.066;24.742;2024-01-27T06:05:44;3.57;;;2.70;;
20894;SDS011;10607;42.066;24.742;2024-01-27T06:08:10;4.27;;;2.37;;
20894;SDS011;10607;42.066;24.742;2024-01-27T06:10:35;5.20;;;2.50;;
20894;SDS011;10607;42.066;24.742;2024-01-27T06:13:03;5.30;;;2.27;;
20894;SDS011;10607;42.066;24.742;2024-01-27T06:15:29;6.90;;;2.17;;
20894;SDS011;10607;42.066;24.742;2024-01-27T06:17:54;3.97;;;2.37;;
20894;SDS011;10607;42.066;24.742;2024-01-27T06:20:19;2.17;;;1.67;;
20894;SDS011;10607;42.066;24.742;2024-01-27T06:22:44;4.13;;;2.53;;
20894;SDS011;10607;42.066;24.742;2024-01-27T06:25:09;4.70;;;1.83;;
20894;SDS011;10607;42.066;24.742;2024-01-27T06:27:35;2.23;;;1.67;;
20894;SDS011;10607;42.066;24.742;2024-01-27T06:30:01;2.80;;;1.77;;
20894;SDS011;10607;42.066;24.742;2024-01-27T06:32:26;2.83;;;1.63;;
20894;SDS011;10607;42.066;24.742;2024-01-27T06:34:51;2.13;;;1.70;;
20894;SDS011;10607;42.066;24.742;2024-01-27T06:37:16;4.47;;;1.77;;
20894;SDS011;10607;42.066;24.742;2024-01-27T06:39:42;4.57;;;2.10;;
20894;SDS011;10607;42.066;24.742;2024-01-27T06:42:07;4.73;;;2.20;;
20894;SDS011;10607;42.066;24.742;2024-01-27T06:44:32;4.40;;;2.13;;
20894;SDS011;10607;42.066;24.742;2024-01-27T06:46:57;5.43;;;2.20;;
20894;SDS011;10607;42.066;24.742;2024-01-27T06:49:22;2.67;;;1.83;;
20894;SDS011;10607;42.066;24.742;2024-01-27T06:51:48;4.23;;;1.60;;
20894;SDS011;10607;42.066;24.742;2024-01-27T06:54:13;5.70;;;2.43;;
20894;SDS011;10607;42.066;24.742;2024-01-27T06:56:38;4.20;;;2.20;;
20894;SDS011;10607;42.066;24.742;2024-01-27T06:59:03;4.27;;;1.73;;
20894;SDS011;10607;42.066;24.742;2024-01-27T07:01:29;3.80;;;2.03;;
20894;SDS011;10607;42.066;24.742;2024-01-27T07:03:54;6.40;;;2.30;;
20894;SDS011;10607;42.066;24.742;2024-01-27T07:06:19;5.40;;;2.37;;
20894;SDS011;10607;42.066;24.742;2024-01-27T07:08:45;7.37;;;2.47;;
20894;SDS011;10607;42.066;24.742;2024-01-27T07:11:10;3.83;;;2.40;;
20894;SDS011;10607;42.066;24.742;2024-01-27T07:13:35;4.53;;;2.13;;
20894;SDS011;10607;42.066;24.742;2024-01-27T07:16:00;4.00;;;2.10;;
20894;SDS011;10607;42.066;24.742;2024-01-27T07:18:26;3.00;;;1.77;;
20894;SDS011;10607;42.066;24.742;2024-01-27T07:20:51;3.97;;;1.90;;
20894;SDS011;10607;42.066;24.742;2024-01-27T07:23:16;5.27;;;1.97;;
20894;SDS011;10607;42.066;24.742;2024-01-27T07:25:42;3.50;;;2.17;;
20894;SDS011;10607;42.066;24.742;2024-01-27T07:28:08;6.70;;;2.50;;
20894;SDS011;10607;42.066;24.742;2024-01-27T07:30:33;11.07;;;3.20;;
20894;SDS011;10607;42.066;24.742;2024-01-27T07:32:58;6.53;;;3.10;;
20894;SDS011;10607;42.066;24.742;2024-01-27T07:35:23;9.03;;;3.30;;
20894;SDS011;10607;42.066;24.742;2024-01-27T07:37:48;10.30;;;3.33;;
20894;SDS011;10607;42.066;24.742;2024-01-27T07:40:14;7.23;;;3.40;;
20894;SDS011;10607;42.066;24.742;2024-01-27T07:42:39;8.33;;;2.70;;
20894;SDS011;10607;42.066;24.742;2024-01-27T07:45:05;8.23;;;3.40;;
20894;SDS011;10607;42.066;24.742;2024-01-27T07:47:30;7.20;;;3.30;;
20894;SDS011;10607;42.066;24.742;2024-01-27T07:49:55;6.23;;;2.57;;
20894;SDS011;10607;42.066;24.742;2024-01-27T07:52:21;5.33;;;2.17;;
20894;SDS011;10607;42.066;24.742;2024-01-27T07:54:46;19.37;;;2.37;;
20894;SDS011;10607;42.066;24.742;2024-01-27T07:57:11;2.00;;;1.43;;
20894;SDS011;10607;42.066;24.742;2024-01-27T07:59:37;2.33;;;1.40;;
20894;SDS011;10607;42.066;24.742;2024-01-27T08:02:02;4.83;;;1.77;;
20894;SDS011;10607;42.066;24.742;2024-01-27T08:04:27;4.23;;;2.07;;
20894;SDS011;10607;42.066;24.742;2024-01-27T08:06:53;4.63;;;1.80;;
20894;SDS011;10607;42.066;24.742;2024-01-27T08:09:18;2.17;;;1.87;;
20894;SDS011;10607;42.066;24.742;2024-01-27T08:11:44;9.60;;;2.03;;
20894;SDS011;10607;42.066;24.742;2024-01-27T08:14:10;3.73;;;1.80;;
20894;SDS011;10607;42.066;24.742;2024-01-27T08:16:35;3.77;;;1.90;;
20894;SDS011;10607;42.066;24.742;2024-01-27T08:19:00;4.97;;;1.67;;
20894;SDS011;10607;42.066;24.742;2024-01-27T08:21:25;3.60;;;1.30;;
20894;SDS011;10607;42.066;24.742;2024-01-27T08:23:51;1.40;;;1.30;;
20894;SDS011;10607;42.066;24.742;2024-01-27T08:26:16;1.33;;;1.10;;
20894;SDS011;10607;42.066;24.742;2024-01-27T08:28:41;1.30;;;0.93;;
20894;SDS011;10607;42.066;24.742;2024-01-27T08:31:06;1.70;;;0.97;;
20894;SDS011;10607;42.066;24.742;2024-01-27T08:33:32;2.07;;;1.10;;
20894;SDS011;10607;42.066;24.742;2024-01-27T08:35:57;1.30;;;1.00;;
20894;SDS011;10607;42.066;24.742;2024-01-27T08:38:22;1.60;;;1.00;;
20894;SDS011;10607;42.066;24.742;2024-01-27T08:40:48;1.10;;;0.87;;
20894;SDS011;10607;42.066;24.742;2024-01-27T08:43:13;0.77;;;0.77;;
20894;SDS011;10607;42.066;24.742;2024-01-27T08:45:38;1.50;;;1.10;;
20894;SDS011;10607;42.066;24.742;2024-01-27T08:48:05;1.37;;;1.10;;
20894;SDS011;10607;42.066;24.742;2024-01-27T08:50:30;1.40;;;1.20;;
20894;SDS011;10607;42.066;24.742;2024-01-27T08:52:55;2.27;;;1.30;;
20894;SDS011;10607;42.066;24.742;2024-01-27T08:55:20;0.83;;;0.83;;
20894;SDS011;10607;42.066;24.742;2024-01-27T08:57:49;2.83;;;1.00;;
20894;SDS011;10607;42.066;24.742;2024-01-27T09:00:14;1.30;;;1.10;;
20894;SDS011;10607;42.066;24.742;2024-01-27T09:02:40;2.37;;;1.20;;
20894;SDS011;10607;42.066;24.742;2024-01-27T09:05:05;2.37;;;1.30;;
20894;SDS011;10607;42.066;24.742;2024-01-27T09:07:33;3.00;;;1.30;;
20894;SDS011;10607;42.066;24.742;2024-01-27T09:09:58;1.90;;;1.60;;
20894;SDS011;10607;42.066;24.742;2024-01-27T09:12:24;3.43;;;1.80;;
20894;SDS011;10607;42.066;24.742;2024-01-27T09:14:49;3.37;;;2.20;;
20894;SDS011;10607;42.066;24.742;2024-01-27T09:17:14;3.37;;;2.40;;
20894;SDS011;10607;42.066;24.742;2024-01-27T09:19:39;4.07;;;2.20;;
20894;SDS011;10607;42.066;24.742;2024-01-27T09:22:04;3.90;;;2.07;;
20894;SDS011;10607;42.066;24.742;2024-01-27T09:24:30;3.40;;;1.40;;
20894;SDS011;10607;42.066;24.742;2024-01-27T09:26:55;2.60;;;1.83;;
20894;SDS011;10607;42.066;24.742;2024-01-27T09:29:20;3.70;;;1.70;;
20894;SDS011;10607;42.066;24.742;2024-01-27T09:31:45;3.30;;;2.03;;
20894;SDS011;10607;42.066;24.742;2024-01-27T09:34:11;7.70;;;2.10;;
20894;SDS011;10607;42.066;24.742;2024-01-27T09:36:36;3.03;;;1.85;;
20894;SDS011;10607;42.066;24.742;2024-01-27T09:39:01;6.07;;;1.80;;
20894;SDS011;10607;42.066;24.742;2024-01-27T09:41:29;3.75;;;1.92;;
20894;SDS011;10607;42.066;24.742;2024-01-27T09:43:55;4.70;;;1.83;;
20894;SDS011;10607;42.066;24.742;2024-01-27T09:46:24;3.83;;;1.83;;
20894;SDS011;10607;42.066;24.742;2024-01-27T09:48:49;11.90;;;1.90;;
20894;SDS011;10607;42.066;24.742;2024-01-27T09:51:15;5.87;;;1.97;;
20894;SDS011;10607;42.066;24.742;2024-01-27T09:53:41;5.10;;;1.50;;
20894;SDS011;10607;42.066;24.742;2024-01-27T09:56:06;3.40;;;1.53;;
20894;SDS011;10607;42.066;24.742;2024-01-27T09:58:31;5.80;;;1.50;;
20894;SDS011;10607;42.066;24.742;2024-01-27T10:00:57;13.83;;;8.30;;
20894;SDS011;10607;42.066;24.742;2024-01-27T10:03:23;7.43;;;2.07;;
20894;SDS011;10607;42.066;24.742;2024-01-27T10:05:49;1.93;;;1.80;;
20894;SDS011;10607;42.066;24.742;2024-01-27T10:08:14;4.23;;;1.87;;
20894;SDS011;10607;42.066;24.742;2024-01-27T10:10:39;6.17;;;1.53;;
20894;SDS011;10607;42.066;24.742;2024-01-27T10:13:05;6.10;;;1.80;;
20894;SDS011;10607;42.066;24.742;2024-01-27T10:15:31;5.57;;;1.97;;
20894;SDS011;10607;42.066;24.742;2024-01-27T10:18:05;7.70;;;1.70;;
20894;SDS011;10607;42.066;24.742;2024-01-27T10:20:31;1.47;;;1.30;;
20894;SDS011;10607;42.066;24.742;2024-01-27T10:22:56;3.43;;;1.10;;
20894;SDS011;10607;42.066;24.742;2024-01-27T10:25:22;11.27;;;1.95;;
20894;SDS011;10607;42.066;24.742;2024-01-27T10:27:47;1.55;;;1.20;;
20894;SDS011;10607;42.066;24.742;2024-01-27T10:30:16;1.77;;;1.08;;
20894;SDS011;10607;42.066;24.742;2024-01-27T10:32:54;3.50;;;1.20;;
20894;SDS011;10607;42.066;24.742;2024-01-27T10:35:20;2.30;;;1.63;;
20894;SDS011;10607;42.066;24.742;2024-01-27T10:37:45;13.87;;;1.53;;
20894;SDS011;10607;42.066;24.742;2024-01-27T10:40:11;3.80;;;1.10;;
20894;SDS011;10607;42.066;24.742;2024-01-27T10:42:37;2.93;;;1.40;;
20894;SDS011;10607;42.066;24.742;2024-01-27T10:45:03;1.43;;;1.07;;
20894;SDS011;10607;42.066;24.742;2024-01-27T10:47:29;5.47;;;1.60;;
20894;SDS011;10607;42.066;24.742;2024-01-27T10:49:56;3.33;;;1.53;;
20894;SDS011;10607;42.066;24.742;2024-01-27T10:52:23;2.07;;;1.30;;
20894;SDS011;10607;42.066;24.742;2024-01-27T10:54:48;1.53;;;1.30;;
20894;SDS011;10607;42.066;24.742;2024-01-27T10:57:14;2.90;;;1.30;;
20894;SDS011;10607;42.066;24.742;2024-01-27T10:59:40;4.43;;;1.37;;
20894;SDS011;10607;42.066;24.742;2024-01-27T11:02:06;6.23;;;1.30;;
20894;SDS011;10607;42.066;24.742;2024-01-27T11:04:35;3.53;;;1.80;;
20894;SDS011;10607;42.066;24.742;2024-01-27T11:07:01;3.97;;;1.10;;
20894;SDS011;10607;42.066;24.742;2024-01-27T11:09:27;7.03;;;1.87;;
20894;SDS011;10607;42.066;24.742;2024-01-27T11:11:53;3.03;;;1.43;;
20894;SDS011;10607;42.066;24.742;2024-01-27T11:14:19;3.23;;;1.70;;
20894;SDS011;10607;42.066;24.742;2024-01-27T11:16:44;1.70;;;1.47;;
20894;SDS011;10607;42.066;24.742;2024-01-27T11:19:12;3.00;;;1.50;;
20894;SDS011;10607;42.066;24.742;2024-01-27T11:21:37;5.10;;;1.33;;
20894;SDS011;10607;42.066;24.742;2024-01-27T11:24:15;2.87;;;2.13;;
20894;SDS011;10607;42.066;24.742;2024-01-27T11:26:40;2.80;;;1.90;;
20894;SDS011;10607;42.066;24.742;2024-01-27T11:29:07;2.00;;;1.30;;
20894;SDS011;10607;42.066;24.742;2024-01-27T11:31:34;4.53;;;1.73;;
20894;SDS011;10607;42.066;24.742;2024-01-27T11:34:00;2.03;;;1.67;;
20894;SDS011;10607;42.066;24.742;2024-01-27T11:36:25;6.73;;;2.73;;
20894;SDS011;10607;42.066;24.742;2024-01-27T11:38:52;1.83;;;1.33;;
20894;SDS011;10607;42.066;24.742;2024-01-27T11:41:24;1.60;;;1.40;;
20894;SDS011;10607;42.066;24.742;2024-01-27T11:43:56;1.80;;;1.70;;
20894;SDS011;10607;42.066;24.742;2024-01-27T11:46:22;1.60;;;1.50;;
20894;SDS011;10607;42.066;24.742;2024-01-27T11:48:47;3.10;;;1.37;;
20894;SDS011;10607;42.066;24.742;2024-01-27T11:51:14;2.20;;;1.70;;
20894;SDS011;10607;42.066;24.742;2024-01-27T11:53:39;5.53;;;1.70;;
20894;SDS011;10607;42.066;24.742;2024-01-27T11:56:04;1.73;;;1.50;;
20894;SDS011;10607;42.066;24.742;2024-01-27T11:58:30;3.23;;;1.60;;
20894;SDS011;10607;42.066;24.742;2024-01-27T12:00:58;1.03;;;1.00;;
20894;SDS011;10607;42.066;24.742;2024-01-27T12:03:24;1.83;;;1.50;;
20894;SDS011;10607;42.066;24.742;2024-01-27T12:05:49;4.90;;;1.63;;
20894;SDS011;10607;42.066;24.742;2024-01-27T12:08:14;4.00;;;1.50;;
20894;SDS011;10607;42.066;24.742;2024-01-27T12:10:41;1.33;;;1.20;;
20894;SDS011;10607;42.066;24.742;2024-01-27T12:13:06;2.30;;;1.40;;
20894;SDS011;10607;42.066;24.742;2024-01-27T12:15:31;2.83;;;1.43;;
20894;SDS011;10607;42.066;24.742;2024-01-27T12:17:56;1.87;;;1.43;;
20894;SDS011;10607;42.066;24.742;2024-01-27T12:20:22;1.90;;;1.60;;
20894;SDS011;10607;42.066;24.742;2024-01-27T12:22:47;2.47;;;1.87;;
20894;SDS011;10607;42.066;24.742;2024-01-27T12:25:15;1.57;;;1.40;;
20894;SDS011;10607;42.066;24.742;2024-01-27T12:27:41;2.17;;;1.50;;
20894;SDS011;10607;42.066;24.742;2024-01-27T12:30:06;2.23;;;1.47;;
20894;SDS011;10607;42.066;24.742;2024-01-27T12:32:32;1.90;;;1.60;;
20894;SDS011;10607;42.066;24.742;2024-01-27T12:34:58;4.43;;;1.17;;
20894;SDS011;10607;42.066;24.742;2024-01-27T12:37:26;1.50;;;1.40;;
20894;SDS011;10607;42.066;24.742;2024-01-27T12:39:51;3.47;;;1.70;;
20894;SDS011;10607;42.066;24.742;2024-01-27T12:42:17;2.30;;;1.70;;
20894;SDS011;10607;42.066;24.742;2024-01-27T12:44:42;1.97;;;1.73;;
20894;SDS011;10607;42.066;24.742;2024-01-27T12:47:09;1.93;;;1.80;;
20894;SDS011;10607;42.066;24.742;2024-01-27T12:49:34;2.30;;;1.80;;
20894;SDS011;10607;42.066;24.742;2024-01-27T12:52:00;2.03;;;1.73;;
20894;SDS011;10607;42.066;24.742;2024-01-27T12:54:25;2.30;;;2.07;;
20894;SDS011;10607;42.066;24.742;2024-01-27T12:56:50;6.70;;;2.20;;
20894;SDS011;10607;42.066;24.742;2024-01-27T12:59:15;1.40;;;1.30;;
20894;SDS011;10607;42.066;24.742;2024-01-27T13:01:40;5.93;;;2.00;;
20894;SDS011;10607;42.066;24.742;2024-01-27T13:04:06;1.63;;;1.47;;
20894;SDS011;10607;42.066;24.742;2024-01-27T13:06:31;2.03;;;1.83;;
20894;SDS011;10607;42.066;24.742;2024-01-27T13:08:56;2.30;;;2.10;;
20894;SDS011;10607;42.066;24.742;2024-01-27T13:11:22;2.53;;;1.80;;
20894;SDS011;10607;42.066;24.742;2024-01-27T13:13:47;1.90;;;1.57;;
20894;SDS011;10607;42.066;24.742;2024-01-27T13:16:12;2.63;;;1.70;;
20894;SDS011;10607;42.066;24.742;2024-01-27T13:18:37;1.93;;;1.70;;
20894;SDS011;10607;42.066;24.742;2024-01-27T13:21:03;1.37;;;1.27;;
20894;SDS011;10607;42.066;24.742;2024-01-27T13:23:29;1.93;;;1.83;;
20894;SDS011;10607;42.066;24.742;2024-01-27T13:25:54;6.67;;;1.77;;
20894;SDS011;10607;42.066;24.742;2024-01-27T13:28:19;2.27;;;1.70;;
20894;SDS011;10607;42.066;24.742;2024-01-27T13:30:45;2.37;;;1.60;;
20894;SDS011;10607;42.066;24.742;2024-01-27T13:33:10;4.53;;;1.73;;
20894;SDS011;10607;42.066;24.742;2024-01-27T13:35:36;4.80;;;1.70;;
20894;SDS011;10607;42.066;24.742;2024-01-27T13:38:01;5.83;;;2.10;;
20894;SDS011;10607;42.066;24.742;2024-01-27T13:40:27;3.33;;;1.90;;
20894;SDS011;10607;42.066;24.742;2024-01-27T13:42:52;1.70;;;1.53;;
20894;SDS011;10607;42.066;24.742;2024-01-27T13:45:18;5.77;;;1.57;;
20894;SDS011;10607;42.066;24.742;2024-01-27T13:47:43;2.70;;;2.00;;
20894;SDS011;10607;42.066;24.742;2024-01-27T13:50:09;3.57;;;2.10;;
20894;SDS011;10607;42.066;24.742;2024-01-27T13:52:35;3.87;;;1.80;;
20894;SDS011;10607;42.066;24.742;2024-01-27T13:55:00;2.40;;;1.60;;
20894;SDS011;10607;42.066;24.742;2024-01-27T13:57:25;3.07;;;2.20;;
20894;SDS011;10607;42.066;24.742;2024-01-27T13:59:51;1.80;;;1.70;;
20894;SDS011;10607;42.066;24.742;2024-01-27T14:02:16;2.47;;;2.10;;
20894;SDS011;10607;42.066;24.742;2024-01-27T14:04:41;1.93;;;1.73;;
20894;SDS011;10607;42.066;24.742;2024-01-27T14:07:07;2.37;;;2.03;;
20894;SDS011;10607;42.066;24.742;2024-01-27T14:09:34;3.17;;;2.40;;
20894;SDS011;10607;42.066;24.742;2024-01-27T14:11:59;2.33;;;1.60;;
20894;SDS011;10607;42.066;24.742;2024-01-27T14:14:26;2.63;;;2.37;;
20894;SDS011;10607;42.066;24.742;2024-01-27T14:16:51;6.37;;;1.80;;
20894;SDS011;10607;42.066;24.742;2024-01-27T14:19:16;3.23;;;2.30;;
20894;SDS011;10607;42.066;24.742;2024-01-27T14:21:41;3.40;;;2.40;;
20894;SDS011;10607;42.066;24.742;2024-01-27T14:24:07;4.03;;;2.80;;